sensor_id;sensor_type;location;lat;lon;timestamp;pressure;altitude;pressure_sealevel;temperature;humidity
34103;BME280;20381;54.498;18.206;2023-03-16T00:01:48;99667.34;;;0.41;64.35
34103;BME280;20381;54.498;18.206;2023-03-16T00:04:14;99672.45;;;0.44;64.38
34103;BME280;20381;54.498;18.206;2023-03-16T00:06:43;99672.00;;;0.48;64.38
34103;BME280;20381;54.498;18.206;2023-03-16T00:09:09;99672.44;;;0.49;64.48
34103;BME280;20381;54.498;18.206;2023-03-16T00:11:38;99674.98;;;0.50;64.45
34103;BME280;20381;54.498;18.206;2023-03-16T00:14:04;99679.30;;;0.48;64.43
34103;BME280;20381;54.498;18.206;2023-03-16T00:16:31;99684.45;;;0.42;64.36
34103;BME280;20381;54.498;18.206;2023-03-16T00:18:57;99677.67;;;0.35;64.45
34103;BME280;20381;54.498;18.206;2023-03-16T00:21:24;99684.11;;;0.30;64.49
34103;BME280;20381;54.498;18.206;2023-03-16T00:23:51;99685.41;;;0.27;64.58
34103;BME280;20381;54.498;18.206;2023-03-16T00:26:18;99690.58;;;0.26;64.69
34103;BME280;20381;54.498;18.206;2023-03-16T00:28:45;99688.87;;;0.21;64.94
34103;BME280;20381;54.498;18.206;2023-03-16T00:31:13;99684.97;;;0.28;64.96
34103;BME280;20381;54.498;18.206;2023-03-16T00:33:41;99689.66;;;0.33;65.14
34103;BME280;20381;54.498;18.206;2023-03-16T00:36:08;99679.80;;;0.37;65.17
34103;BME280;20381;54.498;18.206;2023-03-16T00:38:38;99689.63;;;0.36;65.12
34103;BME280;20381;54.498;18.206;2023-03-16T00:41:08;99684.50;;;0.36;65.21
34103;BME280;20381;54.498;18.206;2023-03-16T00:43:36;99691.31;;;0.43;65.34
34103;BME280;20381;54.498;18.206;2023-03-16T00:46:11;99690.41;;;0.47;65.37
34103;BME280;20381;54.498;18.206;2023-03-16T00:48:41;99691.67;;;0.50;65.35
34103;BME280;20381;54.498;18.206;2023-03-16T00:51:13;99688.70;;;0.51;65.34
34103;BME280;20381;54.498;18.206;2023-03-16T00:53:42;99691.27;;;0.49;65.38
34103;BME280;20381;54.498;18.206;2023-03-16T00:56:10;99696.02;;;0.45;65.36
34103;BME280;20381;54.498;18.206;2023-03-16T00:58:40;99700.72;;;0.44;65.53
34103;BME280;20381;54.498;18.206;2023-03-16T01:01:11;99688.75;;;0.43;65.67
34103;BME280;20381;54.498;18.206;2023-03-16T01:03:39;99692.59;;;0.43;65.57
34103;BME280;20381;54.498;18.206;2023-03-16T01:06:09;99693.91;;;0.40;65.69
34103;BME280;20381;54.498;18.206;2023-03-16T01:08:38;99693.47;;;0.39;65.71
34103;BME280;20381;54.498;18.206;2023-03-16T01:11:11;99690.48;;;0.38;65.79
34103;BME280;20381;54.498;18.206;2023-03-16T01:13:41;99692.18;;;0.39;65.85
34103;BME280;20381;54.498;18.206;2023-03-16T01:16:09;99699.48;;;0.38;65.93
34103;BME280;20381;54.498;18.206;2023-03-16T01:18:35;99693.52;;;0.34;65.95
34103;BME280;20381;54.498;18.206;2023-03-16T01:21:04;99694.41;;;0.29;65.82
34103;BME280;20381;54.498;18.206;2023-03-16T01:23:33;99698.25;;;0.27;66.01
34103;BME280;20381;54.498;18.206;2023-03-16T01:26:01;99700.84;;;0.26;66.08
34103;BME280;20381;54.498;18.206;2023-03-16T01:28:29;99699.13;;;0.26;66.17
34103;BME280;20381;54.498;18.206;2023-03-16T01:31:06;99705.98;;;0.26;66.17
34103;BME280;20381;54.498;18.206;2023-03-16T01:33:34;99710.66;;;0.29;66.34
34103;BME280;20381;54.498;18.206;2023-03-16T01:36:07;99708.05;;;0.37;66.35
34103;BME280;20381;54.498;18.206;2023-03-16T01:38:38;99710.98;;;0.44;66.48
34103;BME280;20381;54.498;18.206;2023-03-16T01:41:05;99703.22;;;0.56;66.62
34103;BME280;20381;54.498;18.206;2023-03-16T01:43:32;99709.98;;;0.66;66.69
34103;BME280;20381;54.498;18.206;2023-03-16T01:51:47;99716.69;;;0.86;66.73
34103;BME280;20381;54.498;18.206;2023-03-16T01:59:38;99710.09;;;1.07;66.91
34103;BME280;20381;54.498;18.206;2023-03-16T02:02:08;99704.85;;;1.17;66.99
34103;BME280;20381;54.498;18.206;2023-03-16T02:04:49;99708.65;;;1.23;67.02
34103;BME280;20381;54.498;18.206;2023-03-16T02:07:35;99715.08;;;1.23;66.94
34103;BME280;20381;54.498;18.206;2023-03-16T02:10:05;99711.25;;;1.20;66.94
34103;BME280;20381;54.498;18.206;2023-03-16T02:12:33;99711.28;;;1.17;66.99
34103;BME280;20381;54.498;18.206;2023-03-16T02:15:00;99713.04;;;1.11;67.05
34103;BME280;20381;54.498;18.206;2023-03-16T02:17:28;99713.95;;;1.07;67.11
34103;BME280;20381;54.498;18.206;2023-03-16T02:23:03;99718.73;;;0.97;67.25
34103;BME280;20381;54.498;18.206;2023-03-16T02:25:44;99714.94;;;0.91;67.31
34103;BME280;20381;54.498;18.206;2023-03-16T02:28:45;99712.39;;;0.88;67.40
34103;BME280;20381;54.498;18.206;2023-03-16T02:31:29;99712.42;;;0.83;67.41
34103;BME280;20381;54.498;18.206;2023-03-16T02:33:58;99708.59;;;0.82;67.53
34103;BME280;20381;54.498;18.206;2023-03-16T02:36:25;99707.34;;;0.79;67.50
34103;BME280;20381;54.498;18.206;2023-03-16T02:38:53;99703.91;;;0.75;67.50
34103;BME280;20381;54.498;18.206;2023-03-16T02:41:20;99705.26;;;0.71;67.48
34103;BME280;20381;54.498;18.206;2023-03-16T02:44:03;99707.41;;;0.66;67.45
34103;BME280;20381;54.498;18.206;2023-03-16T02:46:31;99707.05;;;0.59;67.48
34103;BME280;20381;54.498;18.206;2023-03-16T02:49:28;99712.63;;;0.57;67.73
34103;BME280;20381;54.498;18.206;2023-03-16T02:51:59;99714.30;;;0.63;67.83
34103;BME280;20381;54.498;18.206;2023-03-16T02:54:25;99711.23;;;0.70;67.88
34103;BME280;20381;54.498;18.206;2023-03-16T02:56:52;99717.62;;;0.79;67.98
34103;BME280;20381;54.498;18.206;2023-03-16T02:59:18;99712.83;;;0.86;68.00
34103;BME280;20381;54.498;18.206;2023-03-16T03:01:45;99709.36;;;0.92;67.98
34103;BME280;20381;54.498;18.206;2023-03-16T03:04:12;99705.88;;;0.97;68.07
34103;BME280;20381;54.498;18.206;2023-03-16T03:06:39;99701.56;;;1.04;68.04
34103;BME280;20381;54.498;18.206;2023-03-16T03:09:07;99704.54;;;1.03;68.00
34103;BME280;20381;54.498;18.206;2023-03-16T03:11:37;99706.73;;;0.99;68.04
34103;BME280;20381;54.498;18.206;2023-03-16T03:14:04;99702.91;;;0.96;68.06
34103;BME280;20381;54.498;18.206;2023-03-16T03:16:31;99702.94;;;0.93;68.16
34103;BME280;20381;54.498;18.206;2023-03-16T03:18:58;99714.50;;;0.93;68.33
34103;BME280;20381;54.498;18.206;2023-03-16T03:21:24;99717.89;;;0.95;68.39
34103;BME280;20381;54.498;18.206;2023-03-16T03:23:51;99714.03;;;0.98;68.50
34103;BME280;20381;54.498;18.206;2023-03-16T03:26:19;99710.56;;;1.02;68.58
34103;BME280;20381;54.498;18.206;2023-03-16T03:28:46;99704.92;;;1.10;68.67
34103;BME280;20381;54.498;18.206;2023-03-16T03:31:14;99708.30;;;1.16;68.54
34103;BME280;20381;54.498;18.206;2023-03-16T03:33:43;99706.55;;;1.21;68.72
34103;BME280;20381;54.498;18.206;2023-03-16T03:36:10;99704.31;;;1.28;68.70
34103;BME280;20381;54.498;18.206;2023-03-16T03:38:37;99708.55;;;1.33;68.79
34103;BME280;20381;54.498;18.206;2023-03-16T03:41:05;99706.83;;;1.34;68.75
34103;BME280;20381;54.498;18.206;2023-03-16T03:43:34;99714.10;;;1.36;68.78
34103;BME280;20381;54.498;18.206;2023-03-16T03:46:02;99712.78;;;1.39;68.81
34103;BME280;20381;54.498;18.206;2023-03-16T03:48:28;99710.65;;;1.37;68.80
34103;BME280;20381;54.498;18.206;2023-03-16T03:50:55;99717.92;;;1.39;68.94
34103;BME280;20381;54.498;18.206;2023-03-16T03:53:21;99714.03;;;1.42;68.99
34103;BME280;20381;54.498;18.206;2023-03-16T03:55:48;99710.17;;;1.44;68.98
34103;BME280;20381;54.498;18.206;2023-03-16T03:58:15;99717.02;;;1.46;69.05
34103;BME280;20381;54.498;18.206;2023-03-16T04:00:44;99713.97;;;1.48;69.01
34103;BME280;20381;54.498;18.206;2023-03-16T04:03:10;99712.68;;;1.48;69.04
34103;BME280;20381;54.498;18.206;2023-03-16T04:05:37;99714.00;;;1.45;69.01
34103;BME280;20381;54.498;18.206;2023-03-16T04:08:04;99713.63;;;1.41;69.02
34103;BME280;20381;54.498;18.206;2023-03-16T04:10:31;99708.55;;;1.35;68.98
34103;BME280;20381;54.498;18.206;2023-03-16T04:12:59;99707.73;;;1.30;69.07
34103;BME280;20381;54.498;18.206;2023-03-16T04:15:26;99711.19;;;1.26;69.15
34103;BME280;20381;54.498;18.206;2023-03-16T04:17:53;99705.27;;;1.21;69.13
34103;BME280;20381;54.498;18.206;2023-03-16T04:20:19;99703.59;;;1.14;69.13
34103;BME280;20381;54.498;18.206;2023-03-16T04:22:48;99704.51;;;1.06;69.17
34103;BME280;20381;54.498;18.206;2023-03-16T04:25:16;99707.14;;;1.00;69.22
34103;BME280;20381;54.498;18.206;2023-03-16T04:27:47;99704.63;;;0.96;69.27
34103;BME280;20381;54.498;18.206;2023-03-16T04:30:14;99705.53;;;0.90;69.34
34103;BME280;20381;54.498;18.206;2023-03-16T04:32:41;99703.81;;;0.89;69.51
34103;BME280;20381;54.498;18.206;2023-03-16T04:35:10;99707.23;;;0.91;69.50
34103;BME280;20381;54.498;18.206;2023-03-16T04:37:36;99701.23;;;0.91;69.57
34103;BME280;20381;54.498;18.206;2023-03-16T04:40:04;99712.34;;;0.94;69.69
34103;BME280;20381;54.498;18.206;2023-03-16T04:42:34;99706.35;;;0.94;69.52
34103;BME280;20381;54.498;18.206;2023-03-16T04:45:04;99699.55;;;0.88;69.49
34103;BME280;20381;54.498;18.206;2023-03-16T04:47:31;99696.13;;;0.86;69.64
34103;BME280;20381;54.498;18.206;2023-03-16T04:50:00;99700.83;;;0.86;69.69
34103;BME280;20381;54.498;18.206;2023-03-16T04:52:27;99696.56;;;0.84;69.75
34103;BME280;20381;54.498;18.206;2023-03-16T04:54:55;99699.60;;;0.82;69.83
34103;BME280;20381;54.498;18.206;2023-03-16T04:57:22;99694.46;;;0.82;70.00
34103;BME280;20381;54.498;18.206;2023-03-16T04:59:49;99706.41;;;0.86;70.07
34103;BME280;20381;54.498;18.206;2023-03-16T05:02:15;99704.66;;;0.91;70.32
34103;BME280;20381;54.498;18.206;2023-03-16T05:04:45;99703.34;;;0.94;70.21
34103;BME280;20381;54.498;18.206;2023-03-16T05:07:14;99695.16;;;0.99;70.32
34103;BME280;20381;54.498;18.206;2023-03-16T05:09:41;99699.80;;;1.07;70.29
34103;BME280;20381;54.498;18.206;2023-03-16T05:12:08;99707.42;;;1.17;70.32
34103;BME280;20381;54.498;18.206;2023-03-16T05:14:38;99700.53;;;1.22;70.37
34103;BME280;20381;54.498;18.206;2023-03-16T05:17:04;99699.17;;;1.28;70.40
34103;BME280;20381;54.498;18.206;2023-03-16T05:19:31;99704.69;;;1.35;70.35
34103;BME280;20381;54.498;18.206;2023-03-16T05:21:58;99699.48;;;1.41;70.48
34103;BME280;20381;54.498;18.206;2023-03-16T05:24:26;99706.72;;;1.46;70.48
34103;BME280;20381;54.498;18.206;2023-03-16T05:26:53;99700.62;;;1.53;70.51
34103;BME280;20381;54.498;18.206;2023-03-16T05:29:20;99708.27;;;1.60;70.56
34103;BME280;20381;54.498;18.206;2023-03-16T05:31:48;99706.46;;;1.68;70.69
34103;BME280;20381;54.498;18.206;2023-03-16T05:34:18;99708.07;;;1.78;70.64
34103;BME280;20381;54.498;18.206;2023-03-16T05:36:48;99710.97;;;1.88;70.73
34103;BME280;20381;54.498;18.206;2023-03-16T05:39:15;99712.97;;;1.99;70.69
34103;BME280;20381;54.498;18.206;2023-03-16T05:41:41;99720.53;;;2.12;70.86
34103;BME280;20381;54.498;18.206;2023-03-16T05:44:09;99712.22;;;2.24;70.89
34103;BME280;20381;54.498;18.206;2023-03-16T05:46:36;99728.78;;;2.38;70.86
34103;BME280;20381;54.498;18.206;2023-03-16T05:49:03;99717.44;;;2.50;70.98
34103;BME280;20381;54.498;18.206;2023-03-16T05:51:32;99717.34;;;2.58;70.69
34103;BME280;20381;54.498;18.206;2023-03-16T05:54:00;99724.13;;;2.62;70.80
34103;BME280;20381;54.498;18.206;2023-03-16T05:56:27;99725.77;;;2.69;70.86
34103;BME280;20381;54.498;18.206;2023-03-16T05:58:56;99723.58;;;2.70;70.81
34103;BME280;20381;54.498;18.206;2023-03-16T06:01:23;99735.92;;;2.78;70.87
34103;BME280;20381;54.498;18.206;2023-03-16T06:03:50;99729.83;;;2.82;70.93
34103;BME280;20381;54.498;18.206;2023-03-16T06:06:22;99733.59;;;2.88;70.94
34103;BME280;20381;54.498;18.206;2023-03-16T06:08:47;99735.27;;;2.93;70.94
34103;BME280;20381;54.498;18.206;2023-03-16T06:11:14;99740.70;;;3.03;70.99
34103;BME280;20381;54.498;18.206;2023-03-16T06:13:40;99737.97;;;3.12;70.99
34103;BME280;20381;54.498;18.206;2023-03-16T06:16:07;99741.27;;;3.20;71.03
34103;BME280;20381;54.498;18.206;2023-03-16T06:18:36;99743.63;;;3.32;71.28
34103;BME280;20381;54.498;18.206;2023-03-16T06:21:03;99746.92;;;3.41;71.02
34103;BME280;20381;54.498;18.206;2023-03-16T06:23:30;99740.85;;;3.45;70.94
34103;BME280;20381;54.498;18.206;2023-03-16T06:25:56;99742.36;;;3.55;71.01
34103;BME280;20381;54.498;18.206;2023-03-16T06:28:25;99749.19;;;3.59;71.07
34103;BME280;20381;54.498;18.206;2023-03-16T06:30:54;99745.14;;;3.68;71.11
34103;BME280;20381;54.498;18.206;2023-03-16T06:33:22;99752.18;;;3.83;71.16
34103;BME280;20381;54.498;18.206;2023-03-16T06:35:50;99747.19;;;3.96;71.05
34103;BME280;20381;54.498;18.206;2023-03-16T06:38:17;99751.34;;;4.03;71.10
34103;BME280;20381;54.498;18.206;2023-03-16T06:40:44;99747.09;;;4.21;71.17
34103;BME280;20381;54.498;18.206;2023-03-16T06:43:11;99749.91;;;4.32;71.12
34103;BME280;20381;54.498;18.206;2023-03-16T06:45:42;99753.53;;;4.42;71.09
34103;BME280;20381;54.498;18.206;2023-03-16T06:48:08;99751.61;;;4.52;71.11
34103;BME280;20381;54.498;18.206;2023-03-16T06:50:36;99761.42;;;4.57;71.02
34103;BME280;20381;54.498;18.206;2023-03-16T06:53:02;99760.45;;;4.61;70.96
34103;BME280;20381;54.498;18.206;2023-03-16T06:55:29;99764.14;;;4.70;71.11
34103;BME280;20381;54.498;18.206;2023-03-16T06:57:56;99767.38;;;4.79;71.01
34103;BME280;20381;54.498;18.206;2023-03-16T07:00:24;99778.01;;;4.86;70.87
34103;BME280;20381;54.498;18.206;2023-03-16T07:02:51;99767.04;;;4.94;71.24
34103;BME280;20381;54.498;18.206;2023-03-16T07:05:21;99770.58;;;5.26;71.49
34103;BME280;20381;54.498;18.206;2023-03-16T07:07:47;99772.09;;;5.69;71.77
34103;BME280;20381;54.498;18.206;2023-03-16T07:10:16;99772.78;;;6.23;71.60
34103;BME280;20381;54.498;18.206;2023-03-16T07:12:44;99770.06;;;6.42;71.05
34103;BME280;20381;54.498;18.206;2023-03-16T07:15:11;99769.43;;;6.64;70.98
34103;BME280;20381;54.498;18.206;2023-03-16T07:17:40;99773.64;;;6.94;71.24
34103;BME280;20381;54.498;18.206;2023-03-16T07:20:10;99780.78;;;7.68;71.71
34103;BME280;20381;54.498;18.206;2023-03-16T07:22:38;99763.78;;;8.43;72.01
34103;BME280;20381;54.498;18.206;2023-03-16T07:25:14;99769.08;;;9.07;71.38
34103;BME280;20381;54.498;18.206;2023-03-16T07:27:38;99774.11;;;9.44;71.07
34103;BME280;20381;54.498;18.206;2023-03-16T07:30:08;99776.72;;;9.44;70.25
34103;BME280;20381;54.498;18.206;2023-03-16T07:32:36;99780.08;;;9.46;70.41
34103;BME280;20381;54.498;18.206;2023-03-16T07:35:09;99782.81;;;9.43;69.92
34103;BME280;20381;54.498;18.206;2023-03-16T07:37:34;99786.07;;;9.28;69.94
34103;BME280;20381;54.498;18.206;2023-03-16T07:40:02;99784.89;;;9.35;69.19
34103;BME280;20381;54.498;18.206;2023-03-16T07:42:30;99788.11;;;9.09;69.73
34103;BME280;20381;54.498;18.206;2023-03-16T07:44:59;99785.53;;;9.19;70.59
34103;BME280;20381;54.498;18.206;2023-03-16T07:47:26;99784.77;;;9.38;70.30
34103;BME280;20381;54.498;18.206;2023-03-16T07:49:55;99785.17;;;9.59;69.90
34103;BME280;20381;54.498;18.206;2023-03-16T07:52:22;99787.13;;;9.85;70.15
34103;BME280;20381;54.498;18.206;2023-03-16T07:54:48;99786.85;;;10.12;69.83
34103;BME280;20381;54.498;18.206;2023-03-16T07:57:16;99786.11;;;10.18;69.77
34103;BME280;20381;54.498;18.206;2023-03-16T07:59:43;99791.05;;;10.45;69.86
34103;BME280;20381;54.498;18.206;2023-03-16T08:02:15;99789.31;;;10.73;69.86
34103;BME280;20381;54.498;18.206;2023-03-16T08:04:43;99795.44;;;11.00;69.50
34103;BME280;20381;54.498;18.206;2023-03-16T08:07:10;99796.73;;;11.27;69.61
34103;BME280;20381;54.498;18.206;2023-03-16T08:09:39;99801.13;;;11.53;68.65
34103;BME280;20381;54.498;18.206;2023-03-16T08:12:08;99804.05;;;11.90;69.42
34103;BME280;20381;54.498;18.206;2023-03-16T08:14:36;99802.64;;;12.09;68.93
34103;BME280;20381;54.498;18.206;2023-03-16T08:17:03;99803.75;;;12.05;68.25
34103;BME280;20381;54.498;18.206;2023-03-16T08:19:32;99807.27;;;12.04;67.86
34103;BME280;20381;54.498;18.206;2023-03-16T08:21:59;99816.51;;;12.11;68.62
34103;BME280;20381;54.498;18.206;2023-03-16T08:24:26;99812.63;;;12.18;67.86
34103;BME280;20381;54.498;18.206;2023-03-16T08:26:54;99821.77;;;11.94;67.72
34103;BME280;20381;54.498;18.206;2023-03-16T08:29:24;99827.86;;;11.85;67.76
34103;BME280;20381;54.498;18.206;2023-03-16T08:31:54;99830.45;;;11.68;67.66
34103;BME280;20381;54.498;18.206;2023-03-16T08:34:26;99830.89;;;11.59;67.42
34103;BME280;20381;54.498;18.206;2023-03-16T08:36:54;99827.20;;;11.80;67.65
34103;BME280;20381;54.498;18.206;2023-03-16T08:39:21;99837.83;;;11.69;66.77
34103;BME280;20381;54.498;18.206;2023-03-16T08:41:48;99838.76;;;11.23;66.11
34103;BME280;20381;54.498;18.206;2023-03-16T08:44:15;99846.48;;;10.79;66.07
34103;BME280;20381;54.498;18.206;2023-03-16T08:46:42;99845.69;;;10.29;66.16
34103;BME280;20381;54.498;18.206;2023-03-16T08:49:09;99858.33;;;9.87;65.43
34103;BME280;20381;54.498;18.206;2023-03-16T08:51:35;99857.63;;;9.51;65.38
34103;BME280;20381;54.498;18.206;2023-03-16T08:54:02;99861.71;;;9.14;65.61
34103;BME280;20381;54.498;18.206;2023-03-16T08:56:29;99868.39;;;8.88;65.68
34103;BME280;20381;54.498;18.206;2023-03-16T08:58:57;99870.98;;;8.64;65.62
34103;BME280;20381;54.498;18.206;2023-03-16T09:01:24;99876.20;;;8.41;65.40
34103;BME280;20381;54.498;18.206;2023-03-16T09:03:51;99875.16;;;8.20;65.25
34103;BME280;20381;54.498;18.206;2023-03-16T09:06:18;99881.64;;;8.08;65.35
34103;BME280;20381;54.498;18.206;2023-03-16T09:08:44;99885.44;;;7.98;65.16
34103;BME280;20381;54.498;18.206;2023-03-16T09:11:17;99882.56;;;7.80;64.91
34103;BME280;20381;54.498;18.206;2023-03-16T09:13:44;99884.88;;;7.63;64.65
34103;BME280;20381;54.498;18.206;2023-03-16T09:16:12;99892.27;;;7.49;64.82
34103;BME280;20381;54.498;18.206;2023-03-16T09:18:41;99888.67;;;7.39;64.51
34103;BME280;20381;54.498;18.206;2023-03-16T09:21:09;99886.86;;;7.28;64.61
34103;BME280;20381;54.498;18.206;2023-03-16T09:23:40;99891.54;;;7.17;64.43
34103;BME280;20381;54.498;18.206;2023-03-16T09:26:10;99894.30;;;7.11;64.71
34103;BME280;20381;54.498;18.206;2023-03-16T09:28:40;99902.61;;;7.22;64.65
34103;BME280;20381;54.498;18.206;2023-03-16T09:31:14;99907.25;;;7.40;64.80
34103;BME280;20381;54.498;18.206;2023-03-16T09:33:46;99916.47;;;7.51;64.65
34103;BME280;20381;54.498;18.206;2023-03-16T09:36:13;99917.14;;;7.56;64.66
34103;BME280;20381;54.498;18.206;2023-03-16T09:38:41;99920.11;;;7.72;64.61
34103;BME280;20381;54.498;18.206;2023-03-16T09:46:41;99929.05;;;7.63;64.48
34103;BME280;20381;54.498;18.206;2023-03-16T09:49:12;99936.66;;;7.69;64.58
34103;BME280;20381;54.498;18.206;2023-03-16T09:51:51;99935.36;;;7.82;64.55
34103;BME280;20381;54.498;18.206;2023-03-16T09:57:41;99941.77;;;7.99;64.14
34103;BME280;20381;54.498;18.206;2023-03-16T10:00:28;99945.66;;;7.99;64.29
34103;BME280;20381;54.498;18.206;2023-03-16T10:06:04;99952.17;;;7.99;64.09
34103;BME280;20381;54.498;18.206;2023-03-16T10:08:43;99955.47;;;8.04;64.42
34103;BME280;20381;54.498;18.206;2023-03-16T10:17:47;99962.30;;;8.20;64.10
34103;BME280;20381;54.498;18.206;2023-03-16T10:20:18;99966.30;;;8.17;64.04
34103;BME280;20381;54.498;18.206;2023-03-16T10:22:50;99975.37;;;8.18;64.18
34103;BME280;20381;54.498;18.206;2023-03-16T10:25:30;99974.34;;;8.22;64.28
34103;BME280;20381;54.498;18.206;2023-03-16T10:27:58;99972.94;;;8.25;64.26
34103;BME280;20381;54.498;18.206;2023-03-16T10:30:33;99974.45;;;8.33;64.25
34103;BME280;20381;54.498;18.206;2023-03-16T10:33:11;99986.65;;;8.30;64.12
34103;BME280;20381;54.498;18.206;2023-03-16T10:35:58;99986.86;;;8.24;64.05
34103;BME280;20381;54.498;18.206;2023-03-16T10:41:21;99998.36;;;8.17;63.99
34103;BME280;20381;54.498;18.206;2023-03-16T10:43:53;99992.91;;;8.38;64.12
34103;BME280;20381;54.498;18.206;2023-03-16T10:46:27;99991.45;;;8.68;64.16
34103;BME280;20381;54.498;18.206;2023-03-16T10:48:55;99989.70;;;9.05;64.08
34103;BME280;20381;54.498;18.206;2023-03-16T10:51:27;99989.88;;;9.80;64.46
34103;BME280;20381;54.498;18.206;2023-03-16T10:54:15;99996.69;;;10.59;64.13
34103;BME280;20381;54.498;18.206;2023-03-16T10:56:48;99993.22;;;10.97;63.75
34103;BME280;20381;54.498;18.206;2023-03-16T10:59:28;99996.66;;;11.37;64.08
34103;BME280;20381;54.498;18.206;2023-03-16T11:02:14;100000.66;;;12.27;64.75
34103;BME280;20381;54.498;18.206;2023-03-16T11:04:46;99984.86;;;14.24;66.19
34103;BME280;20381;54.498;18.206;2023-03-16T11:07:16;99987.95;;;17.06;64.38
34103;BME280;20381;54.498;18.206;2023-03-16T11:09:44;99990.76;;;17.29;63.49
34103;BME280;20381;54.498;18.206;2023-03-16T11:12:24;99992.38;;;16.60;62.89
34103;BME280;20381;54.498;18.206;2023-03-16T11:14:59;99999.34;;;15.88;63.17
34103;BME280;20381;54.498;18.206;2023-03-16T11:17:37;100004.52;;;15.27;62.71
34103;BME280;20381;54.498;18.206;2023-03-16T11:20:04;100010.78;;;14.60;62.63
34103;BME280;20381;54.498;18.206;2023-03-16T11:22:37;100019.05;;;13.60;61.61
34103;BME280;20381;54.498;18.206;2023-03-16T11:25:12;100031.46;;;12.40;61.58
34103;BME280;20381;54.498;18.206;2023-03-16T11:33:51;100038.18;;;10.75;62.54
34103;BME280;20381;54.498;18.206;2023-03-16T11:36:30;100036.23;;;12.84;61.13
34103;BME280;20381;54.498;18.206;2023-03-16T11:39:08;100050.87;;;12.70;60.66
34103;BME280;20381;54.498;18.206;2023-03-16T11:44:53;100049.62;;;11.32;60.23
34103;BME280;20381;54.498;18.206;2023-03-16T11:47:36;100061.82;;;10.72;60.27
34103;BME280;20381;54.498;18.206;2023-03-16T12:04:52;100044.66;;;19.22;60.47
34103;BME280;20381;54.498;18.206;2023-03-16T12:14:15;100044.73;;;20.64;60.73
34103;BME280;20381;54.498;18.206;2023-03-16T12:17:06;100058.48;;;23.13;59.06
34103;BME280;20381;54.498;18.206;2023-03-16T12:22:30;100053.16;;;26.59;58.48
34103;BME280;20381;54.498;18.206;2023-03-16T12:25:12;100051.28;;;27.92;58.27
34103;BME280;20381;54.498;18.206;2023-03-16T12:27:48;100061.37;;;27.46;56.58
34103;BME280;20381;54.498;18.206;2023-03-16T12:33:27;100076.65;;;22.61;53.66
34103;BME280;20381;54.498;18.206;2023-03-16T12:41:44;100108.78;;;16.54;51.75
34103;BME280;20381;54.498;18.206;2023-03-16T12:47:07;100116.78;;;14.36;50.99
34103;BME280;20381;54.498;18.206;2023-03-16T12:49:48;100118.59;;;14.04;51.09
34103;BME280;20381;54.498;18.206;2023-03-16T12:52:16;100121.82;;;13.69;50.50
34103;BME280;20381;54.498;18.206;2023-03-16T12:54:53;100127.78;;;13.39;49.93
34103;BME280;20381;54.498;18.206;2023-03-16T12:57:35;100133.50;;;12.78;49.75
34103;BME280;20381;54.498;18.206;2023-03-16T13:00:01;100143.88;;;12.25;49.42
34103;BME280;20381;54.498;18.206;2023-03-16T13:02:33;100138.73;;;11.76;49.11
34103;BME280;20381;54.498;18.206;2023-03-16T13:05:17;100148.44;;;11.34;49.25
34103;BME280;20381;54.498;18.206;2023-03-16T13:07:49;100152.35;;;10.93;49.01
34103;BME280;20381;54.498;18.206;2023-03-16T13:10:18;100161.16;;;10.48;49.00
34103;BME280;20381;54.498;18.206;2023-03-16T13:12:46;100167.22;;;10.03;48.83
34103;BME280;20381;54.498;18.206;2023-03-16T13:18:05;100167.34;;;9.28;48.87
34103;BME280;20381;54.498;18.206;2023-03-16T13:20:48;100163.70;;;9.07;48.93
34103;BME280;20381;54.498;18.206;2023-03-16T13:23:45;100170.63;;;8.95;48.98
34103;BME280;20381;54.498;18.206;2023-03-16T13:26:37;100168.83;;;8.70;48.86
34103;BME280;20381;54.498;18.206;2023-03-16T13:29:25;100179.65;;;8.58;49.09
34103;BME280;20381;54.498;18.206;2023-03-16T13:32:05;100181.66;;;8.63;49.18
34103;BME280;20381;54.498;18.206;2023-03-16T13:34:32;100175.95;;;8.52;49.09
34103;BME280;20381;54.498;18.206;2023-03-16T13:37:00;100173.94;;;8.47;49.19
34103;BME280;20381;54.498;18.206;2023-03-16T13:39:30;100180.80;;;8.35;49.16
34103;BME280;20381;54.498;18.206;2023-03-16T13:44:39;100175.89;;;7.96;49.26
34103;BME280;20381;54.498;18.206;2023-03-16T13:47:11;100179.16;;;7.88;49.28
34103;BME280;20381;54.498;18.206;2023-03-16T13:49:50;100172.90;;;7.78;49.30
34103;BME280;20381;54.498;18.206;2023-03-16T13:54:56;100180.09;;;7.70;49.49
34103;BME280;20381;54.498;18.206;2023-03-16T13:57:26;100181.26;;;7.58;49.35
34103;BME280;20381;54.498;18.206;2023-03-16T14:00:18;100183.10;;;7.55;49.34
34103;BME280;20381;54.498;18.206;2023-03-16T14:02:55;100191.23;;;7.43;49.47
34103;BME280;20381;54.498;18.206;2023-03-16T14:05:32;100188.39;;;7.35;49.62
34103;BME280;20381;54.498;18.206;2023-03-16T14:08:00;100196.66;;;7.33;49.71
34103;BME280;20381;54.498;18.206;2023-03-16T14:10:31;100195.95;;;7.28;49.79
34103;BME280;20381;54.498;18.206;2023-03-16T14:15:59;100194.31;;;7.24;49.80
34103;BME280;20381;54.498;18.206;2023-03-16T14:18:39;100199.27;;;7.17;49.99
34103;BME280;20381;54.498;18.206;2023-03-16T14:21:13;100196.33;;;7.13;49.96
34103;BME280;20381;54.498;18.206;2023-03-16T14:23:47;100196.86;;;7.09;49.97
34103;BME280;20381;54.498;18.206;2023-03-16T14:26:18;100192.99;;;7.08;49.93
34103;BME280;20381;54.498;18.206;2023-03-16T14:31:54;100196.66;;;7.01;50.03
34103;BME280;20381;54.498;18.206;2023-03-16T14:34:33;100184.30;;;6.92;50.17
34103;BME280;20381;54.498;18.206;2023-03-16T14:37:05;100190.05;;;6.87;50.08
34103;BME280;20381;54.498;18.206;2023-03-16T14:39:35;100202.34;;;6.81;50.37
34103;BME280;20381;54.498;18.206;2023-03-16T14:45:02;100193.86;;;6.90;50.36
34103;BME280;20381;54.498;18.206;2023-03-16T14:47:40;100192.48;;;6.93;50.32
34103;BME280;20381;54.498;18.206;2023-03-16T14:50:12;100191.64;;;6.93;50.41